sensor_id;sensor_type;location;lat;lon;timestamp;pressure;altitude;pressure_sealevel;temperature;humidity
67987;BME280;54767;53.800;15.956;2023-07-22T00:00:51;99721.33;;;15.54;72.31
67987;BME280;54767;53.800;15.956;2023-07-22T00:03:33;99719.95;;;15.53;72.42
67987;BME280;54767;53.800;15.956;2023-07-22T00:06:05;99722.95;;;15.53;72.57
67987;BME280;54767;53.800;15.956;2023-07-22T00:08:34;99725.45;;;15.52;72.72
67987;BME280;54767;53.800;15.956;2023-07-22T00:11:06;99723.34;;;15.52;72.53
67987;BME280;54767;53.800;15.956;2023-07-22T00:13:35;99722.48;;;15.50;72.43
67987;BME280;54767;53.800;15.956;2023-07-22T00:16:04;99719.55;;;15.49;72.57
67987;BME280;54767;53.800;15.956;2023-07-22T00:18:32;99716.38;;;15.49;72.56
67987;BME280;54767;53.800;15.956;2023-07-22T00:21:00;99714.09;;;15.48;72.51
67987;BME280;54767;53.800;15.956;2023-07-22T00:23:29;99712.14;;;15.48;72.53
67987;BME280;54767;53.800;15.956;2023-07-22T00:25:58;99706.01;;;15.47;72.55
67987;BME280;54767;53.800;15.956;2023-07-22T00:28:26;99701.78;;;15.47;72.40
67987;BME280;54767;53.800;15.956;2023-07-22T00:30:54;99697.93;;;15.46;72.52
67987;BME280;54767;53.800;15.956;2023-07-22T00:33:23;99699.38;;;15.44;72.58
67987;BME280;54767;53.800;15.956;2023-07-22T00:35:56;99699.25;;;15.43;72.59
67987;BME280;54767;53.800;15.956;2023-07-22T00:38:24;99690.34;;;15.40;72.57
67987;BME280;54767;53.800;15.956;2023-07-22T00:40:53;99691.45;;;15.38;72.63
67987;BME280;54767;53.800;15.956;2023-07-22T00:43:22;99690.95;;;15.36;72.82
67987;BME280;54767;53.800;15.956;2023-07-22T00:45:50;99688.14;;;15.36;72.68
67987;BME280;54767;53.800;15.956;2023-07-22T00:48:19;99686.57;;;15.35;72.75
67987;BME280;54767;53.800;15.956;2023-07-22T00:50:48;99688.02;;;15.34;72.95
67987;BME280;54767;53.800;15.956;2023-07-22T00:53:16;99690.89;;;15.32;73.01
67987;BME280;54767;53.800;15.956;2023-07-22T00:55:46;99687.55;;;15.32;73.06
67987;BME280;54767;53.800;15.956;2023-07-22T00:58:15;99679.45;;;15.31;72.75
67987;BME280;54767;53.800;15.956;2023-07-22T01:00:44;99671.82;;;15.33;72.75
67987;BME280;54767;53.800;15.956;2023-07-22T01:03:13;99672.86;;;15.34;72.73
67987;BME280;54767;53.800;15.956;2023-07-22T01:05:41;99668.05;;;15.35;72.96
67987;BME280;54767;53.800;15.956;2023-07-22T01:08:10;99667.38;;;15.34;72.82
67987;BME280;54767;53.800;15.956;2023-07-22T01:10:39;99662.46;;;15.33;73.04
67987;BME280;54767;53.800;15.956;2023-07-22T01:13:07;99662.48;;;15.33;73.17
67987;BME280;54767;53.800;15.956;2023-07-22T01:15:37;99659.14;;;15.33;72.99
67987;BME280;54767;53.800;15.956;2023-07-22T01:18:06;99656.83;;;15.33;72.77
67987;BME280;54767;53.800;15.956;2023-07-22T01:20:36;99653.64;;;15.34;72.88
67987;BME280;54767;53.800;15.956;2023-07-22T01:23:05;99654.34;;;15.34;73.07
67987;BME280;54767;53.800;15.956;2023-07-22T01:25:34;99654.31;;;15.35;72.92
67987;BME280;54767;53.800;15.956;2023-07-22T01:28:03;99656.92;;;15.36;72.88
67987;BME280;54767;53.800;15.956;2023-07-22T01:30:31;99657.10;;;15.36;73.05
67987;BME280;54767;53.800;15.956;2023-07-22T01:32:59;99656.61;;;15.35;73.06
67987;BME280;54767;53.800;15.956;2023-07-22T01:35:28;99659.44;;;15.35;73.26
67987;BME280;54767;53.800;15.956;2023-07-22T01:37:56;99661.34;;;15.35;73.58
67987;BME280;54767;53.800;15.956;2023-07-22T01:40:25;99661.14;;;15.37;73.57
67987;BME280;54767;53.800;15.956;2023-07-22T01:42:53;99663.59;;;15.37;73.82
67987;BME280;54767;53.800;15.956;2023-07-22T01:45:22;99666.39;;;15.38;73.76
67987;BME280;54767;53.800;15.956;2023-07-22T01:47:50;99666.75;;;15.38;73.86
67987;BME280;54767;53.800;15.956;2023-07-22T01:50:19;99662.52;;;15.38;73.91
67987;BME280;54767;53.800;15.956;2023-07-22T01:52:47;99660.23;;;15.38;73.90
67987;BME280;54767;53.800;15.956;2023-07-22T01:55:16;99654.41;;;15.38;73.79
67987;BME280;54767;53.800;15.956;2023-07-22T01:57:44;99654.58;;;15.38;73.68
67987;BME280;54767;53.800;15.956;2023-07-22T02:00:13;99659.14;;;15.38;73.82
67987;BME280;54767;53.800;15.956;2023-07-22T02:02:43;99660.04;;;15.39;73.83
67987;BME280;54767;53.800;15.956;2023-07-22T02:05:12;99655.10;;;15.39;73.81
67987;BME280;54767;53.800;15.956;2023-07-22T02:07:40;99655.78;;;15.39;73.75
67987;BME280;54767;53.800;15.956;2023-07-22T02:10:09;99649.45;;;15.39;73.70
67987;BME280;54767;53.800;15.956;2023-07-22T02:12:41;99646.46;;;15.39;73.69
67987;BME280;54767;53.800;15.956;2023-07-22T02:15:09;99643.23;;;15.41;73.67
67987;BME280;54767;53.800;15.956;2023-07-22T02:17:38;99646.55;;;15.42;73.60
67987;BME280;54767;53.800;15.956;2023-07-22T02:20:07;99647.08;;;15.42;73.69
67987;BME280;54767;53.800;15.956;2023-07-22T02:22:37;99648.52;;;15.40;73.57
67987;BME280;54767;53.800;15.956;2023-07-22T02:25:05;99644.02;;;15.38;73.75
67987;BME280;54767;53.800;15.956;2023-07-22T02:27:34;99647.06;;;15.35;73.69
67987;BME280;54767;53.800;15.956;2023-07-22T02:30:03;99646.26;;;15.33;73.79
67987;BME280;54767;53.800;15.956;2023-07-22T02:32:32;99647.73;;;15.31;73.67
67987;BME280;54767;53.800;15.956;2023-07-22T02:35:01;99650.22;;;15.30;74.00
67987;BME280;54767;53.800;15.956;2023-07-22T02:37:29;99650.74;;;15.30;73.95
67987;BME280;54767;53.800;15.956;2023-07-22T02:39:57;99654.11;;;15.29;73.90
67987;BME280;54767;53.800;15.956;2023-07-22T02:42:26;99649.90;;;15.29;74.05
67987;BME280;54767;53.800;15.956;2023-07-22T02:44:54;99652.71;;;15.29;74.13
67987;BME280;54767;53.800;15.956;2023-07-22T02:47:22;99658.36;;;15.29;74.07
67987;BME280;54767;53.800;15.956;2023-07-22T02:49:51;99656.43;;;15.28;74.24
67987;BME280;54767;53.800;15.956;2023-07-22T02:52:19;99657.16;;;15.28;74.22
67987;BME280;54767;53.800;15.956;2023-07-22T02:57:35;99658.64;;;15.25;74.19
67987;BME280;54767;53.800;15.956;2023-07-22T03:00:04;99661.34;;;15.23;74.20
67987;BME280;54767;53.800;15.956;2023-07-22T03:02:36;99659.77;;;15.22;74.19
67987;BME280;54767;53.800;15.956;2023-07-22T03:05:06;99659.25;;;15.22;74.28
67987;BME280;54767;53.800;15.956;2023-07-22T03:07:40;99655.02;;;15.22;74.33
67987;BME280;54767;53.800;15.956;2023-07-22T03:10:09;99651.63;;;15.23;74.38
67987;BME280;54767;53.800;15.956;2023-07-22T03:12:38;99655.91;;;15.22;74.33
67987;BME280;54767;53.800;15.956;2023-07-22T03:15:07;99651.02;;;15.20;74.39
67987;BME280;54767;53.800;15.956;2023-07-22T03:17:40;99655.06;;;15.20;74.42
67987;BME280;54767;53.800;15.956;2023-07-22T03:20:11;99657.73;;;15.19;74.49
67987;BME280;54767;53.800;15.956;2023-07-22T03:22:45;99661.09;;;15.19;74.49
67987;BME280;54767;53.800;15.956;2023-07-22T03:25:14;99658.80;;;15.19;74.46
67987;BME280;54767;53.800;15.956;2023-07-22T03:27:46;99654.91;;;15.19;74.63
67987;BME280;54767;53.800;15.956;2023-07-22T03:30:16;99649.63;;;15.19;74.66
67987;BME280;54767;53.800;15.956;2023-07-22T03:32:46;99655.26;;;15.20;74.57
67987;BME280;54767;53.800;15.956;2023-07-22T03:35:18;99660.91;;;15.19;74.62
67987;BME280;54767;53.800;15.956;2023-07-22T03:37:47;99656.52;;;15.18;74.76
67987;BME280;54767;53.800;15.956;2023-07-22T03:40:15;99651.29;;;15.16;74.77
67987;BME280;54767;53.800;15.956;2023-07-22T03:42:56;99647.97;;;15.15;74.54
67987;BME280;54767;53.800;15.956;2023-07-22T03:45:25;99650.82;;;15.14;74.62
67987;BME280;54767;53.800;15.956;2023-07-22T03:47:58;99658.23;;;15.13;74.71
67987;BME280;54767;53.800;15.956;2023-07-22T03:50:28;99656.50;;;15.12;74.64
67987;BME280;54767;53.800;15.956;2023-07-22T03:52:56;99656.52;;;15.12;74.76
67987;BME280;54767;53.800;15.956;2023-07-22T03:55:25;99655.83;;;15.11;74.81
67987;BME280;54767;53.800;15.956;2023-07-22T03:57:53;99656.84;;;15.13;74.97
67987;BME280;54767;53.800;15.956;2023-07-22T04:00:21;99659.97;;;15.14;74.97
67987;BME280;54767;53.800;15.956;2023-07-22T04:02:50;99661.13;;;15.18;75.05
67987;BME280;54767;53.800;15.956;2023-07-22T04:05:18;99662.66;;;15.20;75.02
67987;BME280;54767;53.800;15.956;2023-07-22T04:07:47;99657.83;;;15.23;75.01
67987;BME280;54767;53.800;15.956;2023-07-22T04:10:15;99655.95;;;15.26;74.99
67987;BME280;54767;53.800;15.956;2023-07-22T04:12:45;99653.04;;;15.30;75.16
67987;BME280;54767;53.800;15.956;2023-07-22T04:15:13;99653.19;;;15.31;75.14
67987;BME280;54767;53.800;15.956;2023-07-22T04:17:43;99650.58;;;15.36;75.20
67987;BME280;54767;53.800;15.956;2023-07-22T04:20:12;99647.83;;;15.40;75.08
67987;BME280;54767;53.800;15.956;2023-07-22T04:22:41;99646.23;;;15.41;74.88
67987;BME280;54767;53.800;15.956;2023-07-22T04:25:09;99647.23;;;15.43;75.06
67987;BME280;54767;53.800;15.956;2023-07-22T04:27:38;99650.12;;;15.47;75.05
67987;BME280;54767;53.800;15.956;2023-07-22T04:30:07;99651.86;;;15.54;74.99
67987;BME280;54767;53.800;15.956;2023-07-22T04:32:35;99651.89;;;15.59;74.98
67987;BME280;54767;53.800;15.956;2023-07-22T04:35:04;99649.63;;;15.65;74.73
67987;BME280;54767;53.800;15.956;2023-07-22T04:37:33;99649.73;;;15.68;74.43
67987;BME280;54767;53.800;15.956;2023-07-22T04:40:02;99657.63;;;15.70;74.38
67987;BME280;54767;53.800;15.956;2023-07-22T04:42:34;99648.52;;;15.74;74.30
67987;BME280;54767;53.800;15.956;2023-07-22T04:45:02;99652.48;;;15.77;74.12
67987;BME280;54767;53.800;15.956;2023-07-22T04:47:31;99653.35;;;15.77;74.02
67987;BME280;54767;53.800;15.956;2023-07-22T04:49:59;99654.23;;;15.77;74.11
67987;BME280;54767;53.800;15.956;2023-07-22T04:52:27;99653.81;;;15.80;74.01
67987;BME280;54767;53.800;15.956;2023-07-22T04:54:56;99647.57;;;15.82;73.85
67987;BME280;54767;53.800;15.956;2023-07-22T04:57:24;99656.88;;;15.84;73.82
67987;BME280;54767;53.800;15.956;2023-07-22T04:59:53;99651.02;;;15.85;73.75
67987;BME280;54767;53.800;15.956;2023-07-22T05:02:21;99652.18;;;15.87;73.90
67987;BME280;54767;53.800;15.956;2023-07-22T05:04:49;99655.64;;;15.89;73.84
67987;BME280;54767;53.800;15.956;2023-07-22T05:07:18;99657.34;;;15.92;73.79
67987;BME280;54767;53.800;15.956;2023-07-22T05:09:46;99662.02;;;15.95;73.66
67987;BME280;54767;53.800;15.956;2023-07-22T05:12:14;99667.29;;;15.96;73.60
67987;BME280;54767;53.800;15.956;2023-07-22T05:14:45;99664.29;;;15.96;73.67
67987;BME280;54767;53.800;15.956;2023-07-22T05:17:13;99669.35;;;15.98;73.57
67987;BME280;54767;53.800;15.956;2023-07-22T05:19:42;99668.57;;;16.00;73.66
67987;BME280;54767;53.800;15.956;2023-07-22T05:22:10;99671.11;;;16.03;73.69
67987;BME280;54767;53.800;15.956;2023-07-22T05:24:38;99675.84;;;16.06;73.51
67987;BME280;54767;53.800;15.956;2023-07-22T05:27:07;99680.23;;;16.06;73.49
67987;BME280;54767;53.800;15.956;2023-07-22T05:29:37;99681.96;;;16.07;73.31
67987;BME280;54767;53.800;15.956;2023-07-22T05:32:06;99687.94;;;16.08;73.46
67987;BME280;54767;53.800;15.956;2023-07-22T05:34:54;99693.52;;;16.10;73.46
67987;BME280;54767;53.800;15.956;2023-07-22T05:37:24;99697.38;;;16.11;73.43
67987;BME280;54767;53.800;15.956;2023-07-22T05:39:53;99698.13;;;16.09;73.33
67987;BME280;54767;53.800;15.956;2023-07-22T05:42:21;99707.56;;;16.07;73.37
67987;BME280;54767;53.800;15.956;2023-07-22T05:44:49;99702.88;;;16.04;73.27
67987;BME280;54767;53.800;15.956;2023-07-22T05:47:17;99707.88;;;16.02;73.46
67987;BME280;54767;53.800;15.956;2023-07-22T05:49:46;99697.91;;;15.99;73.42
67987;BME280;54767;53.800;15.956;2023-07-22T05:52:14;99688.77;;;15.98;73.51
67987;BME280;54767;53.800;15.956;2023-07-22T05:54:43;99680.80;;;15.98;73.76
67987;BME280;54767;53.800;15.956;2023-07-22T05:57:11;99679.77;;;15.98;73.80
67987;BME280;54767;53.800;15.956;2023-07-22T05:59:39;99700.98;;;15.96;73.76
67987;BME280;54767;53.800;15.956;2023-07-22T06:02:08;99702.23;;;15.96;73.79
67987;BME280;54767;53.800;15.956;2023-07-22T06:04:37;99712.70;;;15.94;73.85
67987;BME280;54767;53.800;15.956;2023-07-22T06:07:07;99720.70;;;15.92;74.07
67987;BME280;54767;53.800;15.956;2023-07-22T06:09:35;99727.13;;;15.90;73.95
67987;BME280;54767;53.800;15.956;2023-07-22T06:12:04;99729.70;;;15.86;74.13
67987;BME280;54767;53.800;15.956;2023-07-22T06:14:32;99729.78;;;15.83;74.24
67987;BME280;54767;53.800;15.956;2023-07-22T06:17:02;99736.57;;;15.80;74.25
67987;BME280;54767;53.800;15.956;2023-07-22T06:19:30;99739.44;;;15.78;74.44
67987;BME280;54767;53.800;15.956;2023-07-22T06:21:58;99739.66;;;15.75;74.59
67987;BME280;54767;53.800;15.956;2023-07-22T06:24:27;99745.33;;;15.75;74.66
67987;BME280;54767;53.800;15.956;2023-07-22T06:26:56;99744.14;;;15.74;74.74
67987;BME280;54767;53.800;15.956;2023-07-22T06:29:24;99743.11;;;15.72;74.93
67987;BME280;54767;53.800;15.956;2023-07-22T06:31:52;99743.01;;;15.70;74.80
67987;BME280;54767;53.800;15.956;2023-07-22T06:34:21;99743.23;;;15.67;74.85
67987;BME280;54767;53.800;15.956;2023-07-22T06:36:49;99743.61;;;15.66;75.10
67987;BME280;54767;53.800;15.956;2023-07-22T06:39:17;99744.33;;;15.66;75.03
67987;BME280;54767;53.800;15.956;2023-07-22T06:41:45;99745.05;;;15.65;74.88
67987;BME280;54767;53.800;15.956;2023-07-22T06:44:14;99750.88;;;15.65;75.12
67987;BME280;54767;53.800;15.956;2023-07-22T06:46:42;99751.61;;;15.64;75.13
67987;BME280;54767;53.800;15.956;2023-07-22T06:49:12;99754.95;;;15.64;75.20
67987;BME280;54767;53.800;15.956;2023-07-22T06:51:40;99758.47;;;15.64;75.27
67987;BME280;54767;53.800;15.956;2023-07-22T06:54:08;99762.70;;;15.64;75.20
67987;BME280;54767;53.800;15.956;2023-07-22T06:56:37;99763.95;;;15.64;75.14
67987;BME280;54767;53.800;15.956;2023-07-22T06:59:05;99763.08;;;15.64;75.26
67987;BME280;54767;53.800;15.956;2023-07-22T07:01:33;99761.84;;;15.64;75.21
67987;BME280;54767;53.800;15.956;2023-07-22T07:04:02;99763.73;;;15.66;75.38
67987;BME280;54767;53.800;15.956;2023-07-22T07:06:31;99763.15;;;15.69;75.36
67987;BME280;54767;53.800;15.956;2023-07-22T07:09:00;99766.62;;;15.71;75.42
67987;BME280;54767;53.800;15.956;2023-07-22T07:11:31;99766.33;;;15.75;75.52
67987;BME280;54767;53.800;15.956;2023-07-22T07:14:00;99766.42;;;15.78;75.33
67987;BME280;54767;53.800;15.956;2023-07-22T07:16:29;99770.55;;;15.82;75.23
67987;BME280;54767;53.800;15.956;2023-07-22T07:19:00;99772.24;;;15.85;75.36
67987;BME280;54767;53.800;15.956;2023-07-22T07:21:29;99776.77;;;15.87;75.41
67987;BME280;54767;53.800;15.956;2023-07-22T07:23:57;99779.16;;;15.90;75.51
67987;BME280;54767;53.800;15.956;2023-07-22T07:26:26;99785.48;;;15.92;75.30
67987;BME280;54767;53.800;15.956;2023-07-22T07:28:55;99784.54;;;15.93;75.29
67987;BME280;54767;53.800;15.956;2023-07-22T07:31:23;99789.65;;;15.94;75.24
67987;BME280;54767;53.800;15.956;2023-07-22T07:33:51;99789.27;;;16.01;76.17
67987;BME280;54767;53.800;15.956;2023-07-22T07:36:23;99792.67;;;16.12;76.08
67987;BME280;54767;53.800;15.956;2023-07-22T07:38:52;99793.48;;;16.21;75.80
67987;BME280;54767;53.800;15.956;2023-07-22T07:41:21;99794.48;;;16.29;75.58
67987;BME280;54767;53.800;15.956;2023-07-22T07:43:49;99798.05;;;16.35;75.30
67987;BME280;54767;53.800;15.956;2023-07-22T07:46:23;99796.03;;;16.37;75.02
67987;BME280;54767;53.800;15.956;2023-07-22T07:48:56;99795.61;;;16.39;75.06
67987;BME280;54767;53.800;15.956;2023-07-22T07:51:27;99794.27;;;16.43;75.07
67987;BME280;54767;53.800;15.956;2023-07-22T07:53:58;99796.59;;;16.48;75.10
67987;BME280;54767;53.800;15.956;2023-07-22T07:56:27;99803.48;;;16.55;74.61
67987;BME280;54767;53.800;15.956;2023-07-22T07:58:58;99803.73;;;16.58;74.58
67987;BME280;54767;53.800;15.956;2023-07-22T08:01:30;99799.96;;;16.66;74.97
67987;BME280;54767;53.800;15.956;2023-07-22T08:03:58;99803.23;;;16.75;74.86
67987;BME280;54767;53.800;15.956;2023-07-22T08:06:27;99801.91;;;16.79;74.16
67987;BME280;54767;53.800;15.956;2023-07-22T08:08:56;99805.42;;;16.79;73.71
67987;BME280;54767;53.800;15.956;2023-07-22T08:11:25;99814.98;;;16.78;73.32
67987;BME280;54767;53.800;15.956;2023-07-22T08:13:54;99807.59;;;16.78;73.09
67987;BME280;54767;53.800;15.956;2023-07-22T08:16:23;99805.09;;;16.78;73.05
67987;BME280;54767;53.800;15.956;2023-07-22T08:18:54;99809.65;;;16.85;73.22
67987;BME280;54767;53.800;15.956;2023-07-22T08:21:23;99814.00;;;16.88;72.82
67987;BME280;54767;53.800;15.956;2023-07-22T08:23:54;99811.38;;;16.92;72.69
67987;BME280;54767;53.800;15.956;2023-07-22T08:26:23;99814.29;;;16.95;72.47
67987;BME280;54767;53.800;15.956;2023-07-22T08:28:52;99810.81;;;16.99;72.21
67987;BME280;54767;53.800;15.956;2023-07-22T08:31:20;99811.66;;;17.01;71.75
67987;BME280;54767;53.800;15.956;2023-07-22T08:33:49;99810.46;;;17.05;71.51
67987;BME280;54767;53.800;15.956;2023-07-22T08:36:17;99809.28;;;17.08;71.37
67987;BME280;54767;53.800;15.956;2023-07-22T08:38:45;99810.45;;;17.11;70.95
67987;BME280;54767;53.800;15.956;2023-07-22T08:41:14;99817.23;;;17.14;70.94
67987;BME280;54767;53.800;15.956;2023-07-22T08:43:48;99810.19;;;17.19;70.66
67987;BME280;54767;53.800;15.956;2023-07-22T08:46:20;99808.67;;;17.22;70.50
67987;BME280;54767;53.800;15.956;2023-07-22T08:48:53;99812.95;;;17.27;70.17
67987;BME280;54767;53.800;15.956;2023-07-22T08:51:22;99810.45;;;17.33;70.43
67987;BME280;54767;53.800;15.956;2023-07-22T08:53:52;99816.34;;;17.42;70.30
67987;BME280;54767;53.800;15.956;2023-07-22T08:56:38;99816.00;;;17.47;69.60
67987;BME280;54767;53.800;15.956;2023-07-22T08:59:07;99814.64;;;17.51;69.69
67987;BME280;54767;53.800;15.956;2023-07-22T09:01:37;99813.19;;;17.57;69.52
67987;BME280;54767;53.800;15.956;2023-07-22T09:04:08;99817.16;;;17.60;69.18
67987;BME280;54767;53.800;15.956;2023-07-22T09:06:36;99821.83;;;17.58;68.59
67987;BME280;54767;53.800;15.956;2023-07-22T09:09:05;99819.98;;;17.55;68.24
67987;BME280;54767;53.800;15.956;2023-07-22T09:11:36;99826.37;;;17.55;68.14
67987;BME280;54767;53.800;15.956;2023-07-22T09:14:05;99826.73;;;17.54;68.20
67987;BME280;54767;53.800;15.956;2023-07-22T09:16:34;99833.46;;;17.54;67.97
67987;BME280;54767;53.800;15.956;2023-07-22T09:19:04;99837.94;;;17.53;67.63
67987;BME280;54767;53.800;15.956;2023-07-22T09:21:33;99830.80;;;17.49;67.28
67987;BME280;54767;53.800;15.956;2023-07-22T09:24:22;99832.57;;;17.49;67.11
67987;BME280;54767;53.800;15.956;2023-07-22T09:26:51;99834.77;;;17.47;66.85
67987;BME280;54767;53.800;15.956;2023-07-22T09:29:34;99835.09;;;17.47;66.73
67987;BME280;54767;53.800;15.956;2023-07-22T09:32:03;99836.98;;;17.49;67.20
67987;BME280;54767;53.800;15.956;2023-07-22T09:34:32;99836.50;;;17.48;66.74
67987;BME280;54767;53.800;15.956;2023-07-22T09:37:01;99830.84;;;17.42;66.48
67987;BME280;54767;53.800;15.956;2023-07-22T09:39:32;99833.95;;;17.39;66.49
67987;BME280;54767;53.800;15.956;2023-07-22T09:42:02;99834.95;;;17.41;66.37
67987;BME280;54767;53.800;15.956;2023-07-22T09:44:32;99838.15;;;17.46;66.67
67987;BME280;54767;53.800;15.956;2023-07-22T09:47:06;99836.55;;;17.52;66.43
67987;BME280;54767;53.800;15.956;2023-07-22T09:49:40;99837.55;;;17.54;66.21
67987;BME280;54767;53.800;15.956;2023-07-22T09:52:10;99842.71;;;17.58;66.09
67987;BME280;54767;53.800;15.956;2023-07-22T09:54:48;99838.27;;;17.58;65.88
67987;BME280;54767;53.800;15.956;2023-07-22T09:57:20;99840.39;;;17.58;65.61
67987;BME280;54767;53.800;15.956;2023-07-22T09:59:51;99844.52;;;17.57;65.34
67987;BME280;54767;53.800;15.956;2023-07-22T10:02:22;99855.96;;;17.53;65.12
67987;BME280;54767;53.800;15.956;2023-07-22T10:04:55;99854.64;;;17.45;64.91
67987;BME280;54767;53.800;15.956;2023-07-22T10:07:26;99860.15;;;17.38;64.83
67987;BME280;54767;53.800;15.956;2023-07-22T10:09:55;99856.95;;;17.33;64.92
67987;BME280;54767;53.800;15.956;2023-07-22T10:12:24;99852.09;;;17.30;64.71
67987;BME280;54767;53.800;15.956;2023-07-22T10:14:53;99849.27;;;17.30;64.76
67987;BME280;54767;53.800;15.956;2023-07-22T10:17:22;99845.31;;;17.32;64.51
67987;BME280;54767;53.800;15.956;2023-07-22T10:19:52;99846.70;;;17.33;64.36
67987;BME280;54767;53.800;15.956;2023-07-22T10:22:22;99848.56;;;17.36;64.72
67987;BME280;54767;53.800;15.956;2023-07-22T10:24:52;99846.33;;;17.45;64.80
67987;BME280;54767;53.800;15.956;2023-07-22T10:27:22;99847.65;;;17.58;64.65
67987;BME280;54767;53.800;15.956;2023-07-22T10:29:51;99850.29;;;17.70;64.36
67987;BME280;54767;53.800;15.956;2023-07-22T10:32:22;99845.73;;;17.79;64.23
67987;BME280;54767;53.800;15.956;2023-07-22T10:34:51;99844.65;;;17.91;63.88
67987;BME280;54767;53.800;15.956;2023-07-22T10:37:19;99845.88;;;17.96;63.45
67987;BME280;54767;53.800;15.956;2023-07-22T10:39:52;99852.94;;;17.97;63.11
67987;BME280;54767;53.800;15.956;2023-07-22T10:42:25;99852.80;;;17.95;62.95
67987;BME280;54767;53.800;15.956;2023-07-22T10:44:54;99855.00;;;17.94;62.89
67987;BME280;54767;53.800;15.956;2023-07-22T10:47:34;99858.25;;;17.92;62.71
67987;BME280;54767;53.800;15.956;2023-07-22T10:50:06;99860.27;;;17.90;62.80
67987;BME280;54767;53.800;15.956;2023-07-22T10:52:43;99861.56;;;17.88;62.96
67987;BME280;54767;53.800;15.956;2023-07-22T10:55:19;99858.29;;;17.91;62.82
67987;BME280;54767;53.800;15.956;2023-07-22T10:57:49;99856.41;;;17.99;62.67
67987;BME280;54767;53.800;15.956;2023-07-22T11:00:20;99855.33;;;18.09;62.82
67987;BME280;54767;53.800;15.956;2023-07-22T11:03:09;99862.07;;;18.19;62.74
67987;BME280;54767;53.800;15.956;2023-07-22T11:05:51;99859.57;;;18.30;62.63
67987;BME280;54767;53.800;15.956;2023-07-22T11:08:41;99853.76;;;18.39;62.14
67987;BME280;54767;53.800;15.956;2023-07-22T11:11:11;99854.30;;;18.53;62.18
67987;BME280;54767;53.800;15.956;2023-07-22T11:13:39;99860.61;;;18.64;61.95
67987;BME280;54767;53.800;15.956;2023-07-22T11:16:11;99862.45;;;18.72;61.79
67987;BME280;54767;53.800;15.956;2023-07-22T11:18:41;99861.41;;;18.77;61.15
67987;BME280;54767;53.800;15.956;2023-07-22T11:21:11;99861.43;;;18.77;60.80
67987;BME280;54767;53.800;15.956;2023-07-22T11:23:39;99865.95;;;18.73;60.21
67987;BME280;54767;53.800;15.956;2023-07-22T11:26:08;99869.01;;;18.72;60.34
67987;BME280;54767;53.800;15.956;2023-07-22T11:28:36;99883.96;;;18.70;60.22
67987;BME280;54767;53.800;15.956;2023-07-22T11:31:05;99899.02;;;18.66;60.60
67987;BME280;54767;53.800;15.956;2023-07-22T11:33:40;99904.49;;;18.56;61.08
67987;BME280;54767;53.800;15.956;2023-07-22T11:36:11;99904.09;;;18.43;61.69
67987;BME280;54767;53.800;15.956;2023-07-22T11:38:41;99900.49;;;18.35;61.89
67987;BME280;54767;53.800;15.956;2023-07-22T11:41:09;99903.30;;;18.31;62.37
67987;BME280;54767;53.800;15.956;2023-07-22T11:43:39;99903.96;;;18.27;62.31
67987;BME280;54767;53.800;15.956;2023-07-22T11:46:08;99901.66;;;18.22;62.22
67987;BME280;54767;53.800;15.956;2023-07-22T11:48:37;99902.58;;;18.21;62.44
67987;BME280;54767;53.800;15.956;2023-07-22T11:51:07;99896.16;;;18.22;62.34
67987;BME280;54767;53.800;15.956;2023-07-22T11:53:35;99900.39;;;18.22;62.33
67987;BME280;54767;53.800;15.956;2023-07-22T11:56:04;99898.56;;;18.24;62.44
67987;BME280;54767;53.800;15.956;2023-07-22T11:58:33;99890.31;;;18.32;62.81
67987;BME280;54767;53.800;15.956;2023-07-22T12:01:10;99883.70;;;18.44;62.72
67987;BME280;54767;53.800;15.956;2023-07-22T12:03:39;99885.59;;;18.50;62.13
67987;BME280;54767;53.800;15.956;2023-07-22T12:06:08;99882.80;;;18.53;61.76
67987;BME280;54767;53.800;15.956;2023-07-22T12:08:44;99887.19;;;18.55;61.47
67987;BME280;54767;53.800;15.956;2023-07-22T12:11:24;99886.72;;;18.53;61.10
67987;BME280;54767;53.800;15.956;2023-07-22T12:14:12;99896.16;;;18.52;60.72
67987;BME280;54767;53.800;15.956;2023-07-22T12:16:43;99900.34;;;18.49;60.51
67987;BME280;54767;53.800;15.956;2023-07-22T12:19:11;99903.75;;;18.48;60.38
67987;BME280;54767;53.800;15.956;2023-07-22T12:21:40;99899.34;;;18.48;60.28
67987;BME280;54767;53.800;15.956;2023-07-22T12:24:13;99897.88;;;18.49;60.25
67987;BME280;54767;53.800;15.956;2023-07-22T12:26:42;99897.80;;;18.50;60.04
67987;BME280;54767;53.800;15.956;2023-07-22T12:29:11;99897.77;;;18.51;60.26
67987;BME280;54767;53.800;15.956;2023-07-22T12:31:39;99899.18;;;18.52;59.91
67987;BME280;54767;53.800;15.956;2023-07-22T12:34:07;99895.21;;;18.49;59.64
67987;BME280;54767;53.800;15.956;2023-07-22T12:36:36;99896.31;;;18.43;59.54
67987;BME280;54767;53.800;15.956;2023-07-22T12:39:04;99893.73;;;18.41;59.70
67987;BME280;54767;53.800;15.956;2023-07-22T12:41:33;99891.68;;;18.38;59.50
67987;BME280;54767;53.800;15.956;2023-07-22T12:44:01;99894.47;;;18.35;59.52
67987;BME280;54767;53.800;15.956;2023-07-22T12:46:29;99892.23;;;18.33;59.67
67987;BME280;54767;53.800;15.956;2023-07-22T12:48:57;99893.86;;;18.32;59.84
67987;BME280;54767;53.800;15.956;2023-07-22T12:51:27;99889.01;;;18.35;60.16
67987;BME280;54767;53.800;15.956;2023-07-22T12:53:55;99892.70;;;18.40;60.42
67987;BME280;54767;53.800;15.956;2023-07-22T12:56:24;99888.66;;;18.48;60.38
67987;BME280;54767;53.800;15.956;2023-07-22T12:58:53;99883.61;;;18.61;60.65
67987;BME280;54767;53.800;15.956;2023-07-22T13:01:21;99881.15;;;18.75;60.37
67987;BME280;54767;53.800;15.956;2023-07-22T13:03:49;99886.42;;;18.86;60.19
67987;BME280;54767;53.800;15.956;2023-07-22T13:06:18;99884.14;;;18.90;59.65